This is the latest recevied weather packets stored in our database for station/object N8SHA. If no packets are shown the sender has not sent any weather packets the latest 10 day(s).
| Time | Temp. | Humidity | Pressure | Rain* | Wind** | Luminosity | Snow |
|---|---|---|---|---|---|---|---|
| 1777745634 | 7.22° C | 52% | 1017.5 hPa | 0 mm | - | 208 W/m² | - |
| 1777745331 | 7.78° C | 50% | 1017.6 hPa | 0 mm | - | 184 W/m² | - |
| 1777745028 | 7.78° C | 49% | 1017.7 hPa | 0 mm | - | 163 W/m² | - |
| 1777744724 | 7.78° C | 51% | 1017.6 hPa | 0 mm | - | 283 W/m² | - |
| 1777744418 | 8.33° C | 49% | 1017.6 hPa | 0 mm | - | 321 W/m² | - |
| 1777744116 | 10° C | 47% | 1017.5 hPa | 0 mm | - | 430 W/m² | - |
| 1777743813 | 8.33° C | 51% | 1017.7 hPa | 0 mm | - | 906 W/m² | - |
| 1777743509 | 7.78° C | 51% | 1017.8 hPa | 0 mm | - | 549 W/m² | - |
| 1777743206 | 7.22° C | 54% | 1017.6 hPa | 0 mm | - | 421 W/m² | - |
| 1777742904 | 6.67° C | 52% | 1017.8 hPa | 0 mm | - | 527 W/m² | - |
| 1777742601 | 7.78° C | 50% | 1017.7 hPa | 0 mm | - | 382 W/m² | - |
| 1777742297 | 7.78° C | 49% | 1017.7 hPa | 0 mm | - | 539 W/m² | - |
| 1777741994 | 6.67° C | 51% | 1017.8 hPa | 0 mm | - | 378 W/m² | - |
| 1777741691 | 6.67° C | 52% | 1017.9 hPa | 0 mm | - | 332 W/m² | - |
| 1777741387 | 6.67° C | 49% | 1017.8 hPa | 0 mm | - | 307 W/m² | - |
| 1777741083 | 6.67° C | 51% | 1018 hPa | 0 mm | - | 265 W/m² | - |
| 1777740780 | 7.22° C | 48% | 1017.8 hPa | 0 mm | - | 264 W/m² | - |
| 1777740477 | 6.67° C | 51% | 1018 hPa | 0 mm | - | 349 W/m² | - |
| 1777740175 | 6.67° C | 50% | 1017.8 hPa | 0 mm | - | 435 W/m² | - |
| 1777739870 | 6.67° C | 51% | 1018 hPa | 0 mm | - | 398 W/m² | - |
| 1777739567 | 6.11° C | 53% | 1018.1 hPa | 0 mm | - | 252 W/m² | - |
| 1777739264 | 6.67° C | 50% | 1017.9 hPa | 0 mm | - | 241 W/m² | - |
| 1777738961 | 7.78° C | 46% | 1018.1 hPa | 0 mm | - | 275 W/m² | - |
| 1777738658 | 7.22° C | 51% | 1018.1 hPa | 0 mm | - | 925 W/m² | - |
| 1777738354 | 6.67° C | 53% | 1018.2 hPa | 0 mm | - | 491 W/m² | - |
* Rain latest hour (hover to see other rain measurements)
** Current wind speed in m/s (hover to see current wind gust speed)